Time;durP1;ratioP1;P1;durP2;ratioP2;P2;SDS_P1;SDS_P2;PMS_P1;PMS_P2;Temp;Humidity;BMP_temperature;BMP_pressure;BME280_temperature;BME280_humidity;BME280_pressure;Samples;Min_cycle;Max_cycle;Signal;HPM_P1;HPM_P2
2022/06/06 00:03:01;;;;;;;40.93;22.07;;;;;14.80;101024.00;;;;10437493;28;20628;-78
2022/06/06 00:08:04;;;;;;;37.13;22.23;;;;;14.80;101018.00;;;;10471289;28;20220;-79
2022/06/06 00:13:07;;;;;;;37.87;21.60;;;;;14.80;101022.00;;;;10427994;28;20224;-79
2022/06/06 00:18:09;;;;;;;36.80;21.40;;;;;14.80;101021.00;;;;10418973;28;20283;-79
2022/06/06 00:23:11;;;;;;;38.67;22.20;;;;;14.80;101007.00;;;;10483565;28;20202;-79
2022/06/06 00:28:13;;;;;;;38.77;22.40;;;;;14.80;101013.00;;;;10426610;28;20202;-79
2022/06/06 00:38:55;;;;;;;39.43;24.20;;;;;14.70;101004.00;;;;10330718;28;20227;-79
2022/06/06 00:44:10;;;;;;;38.40;23.70;;;;;14.80;101000.00;;;;10436028;28;20292;-79
2022/06/06 00:49:33;;;;;;;37.20;23.07;;;;;14.70;100988.00;;;;10409037;28;20194;-79
2022/06/06 00:54:38;;;;;;;43.97;22.27;;;;;14.70;100984.00;;;;10434669;28;20197;-79
2022/06/06 00:59:43;;;;;;;37.80;23.30;;;;;14.60;100988.00;;;;10445958;28;20211;-78
2022/06/06 01:04:46;;;;;;;36.03;21.53;;;;;14.50;100964.00;;;;10407207;28;20249;-78
2022/06/06 01:09:48;;;;;;;36.23;22.03;;;;;14.40;100971.00;;;;10444474;28;20206;-78
2022/06/06 01:14:55;;;;;;;34.60;22.90;;;;;14.30;100969.00;;;;10423427;28;20191;-78
2022/06/06 01:20:18;;;;;;;38.90;21.83;;;;;14.20;100980.00;;;;10444698;28;20496;-78
2022/06/06 01:25:26;;;;;;;38.47;21.47;;;;;14.20;100976.00;;;;10451787;28;20220;-78
2022/06/06 01:30:42;;;;;;;35.80;20.03;;;;;14.00;100985.00;;;;10430760;28;20212;-78
2022/06/06 01:35:46;;;;;;;29.10;18.80;;;;;13.90;100979.00;;;;10414855;28;20298;-78
2022/06/06 01:41:03;;;;;;;35.43;18.97;;;;;13.70;100984.00;;;;10415296;28;20221;-78
2022/06/06 01:46:10;;;;;;;31.10;18.47;;;;;13.60;100983.00;;;;10429883;28;20193;-78
2022/06/06 01:51:16;;;;;;;35.67;21.13;;;;;13.50;100977.00;;;;10414222;28;20208;-78
2022/06/06 01:56:23;;;;;;;36.53;20.80;;;;;13.50;100984.00;;;;10413787;28;20231;-78
2022/06/06 02:01:25;;;;;;;35.73;22.23;;;;;13.40;100980.00;;;;10469800;28;20197;-78
2022/06/06 02:06:27;;;;;;;38.10;23.53;;;;;13.40;100981.00;;;;10454024;28;20223;-78
2022/06/06 02:11:29;;;;;;;36.33;22.43;;;;;13.40;100985.00;;;;10487442;28;20202;-77
2022/06/06 02:16:31;;;;;;;35.97;22.07;;;;;13.40;100983.00;;;;10462162;28;20293;-78
2022/06/06 02:21:34;;;;;;;35.57;22.10;;;;;13.50;100978.00;;;;10464030;28;20201;-78
2022/06/06 02:26:36;;;;;;;33.57;21.77;;;;;13.50;100994.00;;;;10454855;28;20190;-78
2022/06/06 02:31:38;;;;;;;33.20;20.03;;;;;13.50;100998.00;;;;10449137;28;20657;-79
2022/06/06 02:36:40;;;;;;;30.10;19.77;;;;;13.50;101001.00;;;;10421699;28;20210;-78
2022/06/06 02:41:47;;;;;;;25.53;18.20;;;;;13.50;100995.00;;;;10412372;28;20225;-78
2022/06/06 02:46:50;;;;;;;28.03;17.93;;;;;13.50;100995.00;;;;10436411;28;20267;-78
2022/06/06 02:51:52;;;;;;;22.13;15.43;;;;;13.30;100984.00;;;;10455422;28;20197;-78
2022/06/06 02:56:54;;;;;;;20.40;13.47;;;;;13.10;100969.00;;;;10451872;28;20201;-78
2022/06/06 03:01:56;;;;;;;19.07;13.13;;;;;13.00;100974.00;;;;10469255;28;20190;-78
2022/06/06 03:07:19;;;;;;;18.77;12.60;;;;;12.80;100974.00;;;;10468645;28;20255;-78
2022/06/06 03:12:40;;;;;;;19.50;12.00;;;;;12.70;100973.00;;;;10469324;28;20532;-78
2022/06/06 03:23:43;;;;;;;19.33;11.83;;;;;12.50;100977.00;;;;10442253;28;20205;-78
2022/06/06 03:28:55;;;;;;;19.17;10.77;;;;;12.50;100975.00;;;;10434585;28;20599;-77
2022/06/06 03:34:07;;;;;;;16.50;11.13;;;;;12.40;100976.00;;;;10434399;28;20194;-77
2022/06/06 03:39:27;;;;;;;16.50;10.67;;;;;12.40;100995.00;;;;10416281;28;20623;-78
2022/06/06 03:45:16;;;;;;;17.43;10.50;;;;;12.40;101001.00;;;;10409453;28;20244;-78
2022/06/06 03:50:28;;;;;;;11.43;7.63;;;;;12.40;101014.00;;;;10465301;28;20197;-77
2022/06/06 03:55:57;;;;;;;15.47;9.37;;;;;12.50;101003.00;;;;10436724;28;20190;-78
2022/06/06 04:01:05;;;;;;;15.33;9.23;;;;;12.50;101007.00;;;;10426080;28;20584;-77
2022/06/06 04:06:09;;;;;;;13.27;8.50;;;;;12.60;101015.00;;;;10431684;28;20237;-79
2022/06/06 04:11:29;;;;;;;11.30;8.03;;;;;12.70;101020.00;;;;10412489;28;20232;-79
2022/06/06 04:16:58;;;;;;;9.90;7.17;;;;;12.90;101026.00;;;;10424237;28;20221;-79
2022/06/06 04:22:26;;;;;;;11.60;6.90;;;;;13.00;101021.00;;;;10445015;28;20212;-79
2022/06/06 04:27:47;;;;;;;9.53;5.97;;;;;13.10;101026.00;;;;10440446;28;20206;-79
2022/06/06 04:33:29;;;;;;;5.93;5.23;;;;;13.30;101014.00;;;;10440453;28;20259;-78
2022/06/06 04:38:41;;;;;;;7.80;5.10;;;;;13.70;101015.00;;;;10430811;28;20211;-78
2022/06/06 04:43:52;;;;;;;6.00;4.67;;;;;14.30;101002.00;;;;10449791;28;20193;-79
2022/06/06 04:48:56;;;;;;;8.50;4.50;;;;;14.30;101010.00;;;;10459930;28;20684;-79
2022/06/06 04:53:59;;;;;;;6.27;3.97;;;;;14.30;101010.00;;;;10430753;28;20213;-79
2022/06/06 04:59:01;;;;;;;7.13;4.00;;;;;14.50;100991.00;;;;10410041;28;20212;-79
2022/06/06 05:04:03;;;;;;;6.00;3.70;;;;;14.60;100985.00;;;;10448509;28;20229;-79
2022/06/06 05:09:24;;;;;;;5.90;3.80;;;;;14.70;100989.00;;;;10454338;28;20553;-78
2022/06/06 05:14:38;;;;;;;7.20;3.40;;;;;14.70;100996.00;;;;10399127;28;20213;-79
2022/06/06 05:20:25;;;;;;;5.00;2.90;;;;;14.60;100994.00;;;;10449672;28;20205;-79
2022/06/06 05:25:57;;;;;;;4.80;2.90;;;;;14.20;100994.00;;;;10432446;28;20213;-79
2022/06/06 05:31:43;;;;;;;5.37;2.67;;;;;13.90;100986.00;;;;10415156;28;20206;-78
2022/06/06 05:37:17;;;;;;;8.50;3.43;;;;;13.90;100992.00;;;;10430150;28;20297;-79
2022/06/06 05:42:37;;;;;;;7.17;2.97;;;;;14.20;100996.00;;;;10472182;28;20233;-79
2022/06/06 05:47:58;;;;;;;2.50;2.30;;;;;14.50;101004.00;;;;10471210;28;20647;-78
2022/06/06 05:53:15;;;;;;;5.43;2.43;;;;;14.80;101016.00;;;;10441477;28;20194;-78
2022/06/06 05:58:31;;;;;;;4.90;2.70;;;;;15.20;101005.00;;;;10429927;28;20229;-78
2022/06/06 06:03:50;;;;;;;4.07;2.80;;;;;15.60;101010.00;;;;10425749;28;20324;-78
2022/06/06 06:09:13;;;;;;;3.03;2.10;;;;;15.90;101006.00;;;;10437171;28;20198;-78
2022/06/06 06:14:28;;;;;;;7.03;2.67;;;;;16.40;101009.00;;;;10445648;28;20212;-79
2022/06/06 06:20:04;;;;;;;4.97;2.70;;;;;16.90;101022.00;;;;10462932;28;20310;-78
2022/06/06 06:25:09;;;;;;;3.30;2.55;;;;;17.10;101035.00;;;;10421372;28;20247;-79
2022/06/06 06:30:12;;;;;;;3.80;2.20;;;;;17.20;101036.00;;;;10448326;28;20733;-79
2022/06/06 06:35:24;;;;;;;5.35;2.88;;;;;17.80;101029.00;;;;10412154;28;20194;-78
2022/06/06 06:40:41;;;;;;;2.63;2.10;;;;;18.30;101032.00;;;;10444372;28;20199;-79
2022/06/06 06:45:58;;;;;;;3.95;2.50;;;;;18.60;101032.00;;;;10444565;28;20229;-79
2022/06/06 06:51:00;;;;;;;2.28;2.08;;;;;18.60;101036.00;;;;10472465;28;20203;-79
2022/06/06 06:56:17;;;;;;;5.13;2.67;;;;;18.80;101043.00;;;;10465838;28;20206;-78
2022/06/06 07:01:40;;;;;;;3.30;2.55;;;;;19.10;101039.00;;;;10454643;28;20836;-79
2022/06/06 07:12:58;;;;;;;4.53;3.47;;;;;19.60;101065.00;;;;10475772;28;20610;-78
2022/06/06 07:18:04;;;;;;;5.55;3.00;;;;;20.30;101050.00;;;;10451484;28;20644;-78
2022/06/06 07:23:11;;;;;;;5.65;2.67;;;;;21.10;101046.00;;;;10450762;28;20193;-78
2022/06/06 07:28:18;;;;;;;9.63;2.72;;;;;21.60;101042.00;;;;10425936;28;20252;-78
2022/06/06 07:33:32;;;;;;;6.50;2.75;;;;;22.90;101030.00;;;;10448282;28;20198;-78
2022/06/06 07:38:38;;;;;;;4.50;3.13;;;;;21.90;101052.00;;;;10425231;28;20210;-79
2022/06/06 07:44:18;;;;;;;5.65;2.80;;;;;21.10;101060.00;;;;10425749;28;20233;-78
2022/06/06 07:49:35;;;;;;;3.38;1.92;;;;;21.90;101069.00;;;;10379455;28;20217;-79
2022/06/06 07:54:56;;;;;;;2.92;1.80;;;;;22.50;101052.00;;;;10466600;28;20560;-79
2022/06/06 08:00:03;;;;;;;3.78;1.90;;;;;22.60;101058.00;;;;10457703;28;20664;-78
2022/06/06 08:05:21;;;;;;;4.18;1.80;;;;;21.90;101058.00;;;;10440490;28;20210;-79
2022/06/06 08:10:39;;;;;;;2.88;1.80;;;;;21.50;101044.00;;;;10426823;28;20553;-78
2022/06/06 08:16:04;;;;;;;2.65;1.33;;;;;22.90;101046.00;;;;10461269;28;20232;-79
2022/06/06 08:21:24;;;;;;;2.88;1.65;;;;;23.50;101038.00;;;;10482595;28;20537;-78
2022/06/06 08:26:27;;;;;;;6.00;2.08;;;;;23.30;101041.00;;;;10464534;28;20185;-79
2022/06/06 08:31:29;;;;;;;3.70;1.40;;;;;22.10;101043.00;;;;10438802;28;20631;-78
2022/06/06 08:36:31;;;;;;;3.35;1.50;;;;;22.30;101034.00;;;;10446427;28;20218;-78
2022/06/06 08:41:42;;;;;;;2.70;1.33;;;;;23.40;101041.00;;;;10433425;28;20244;-78
2022/06/06 08:47:41;;;;;;;1.48;1.17;;;;;25.20;101019.00;;;;10438129;28;20190;-78
2022/06/06 08:52:52;;;;;;;2.25;1.20;;;;;25.10;101020.00;;;;10258111;29;20205;-78
2022/06/06 08:58:15;;;;;;;2.75;1.15;;;;;25.70;101025.00;;;;10440095;28;20209;-78
2022/06/06 09:03:54;;;;;;;1.30;1.20;;;;;26.50;101020.00;;;;10504870;28;20247;-79
2022/06/06 09:09:42;;;;;;;3.63;1.45;;;;;27.90;101021.00;;;;10469431;28;20200;-76
2022/06/06 09:15:04;;;;;;;1.35;0.90;;;;;25.20;101026.00;;;;10488048;28;20201;-78
2022/06/06 09:20:22;;;;;;;2.80;1.10;;;;;25.00;100999.00;;;;10489077;28;20194;-78
2022/06/06 09:25:39;;;;;;;4.22;1.30;;;;;23.30;101020.00;;;;10472195;28;20212;-78
2022/06/06 09:31:11;;;;;;;2.35;1.05;;;;;24.10;101026.00;;;;10487064;28;20196;-78
2022/06/06 09:36:27;;;;;;;2.80;1.40;;;;;22.10;101032.00;;;;10464991;28;20234;-78
2022/06/06 09:42:01;;;;;;;3.05;1.25;;;;;22.20;101026.00;;;;10471487;28;20189;-78
2022/06/06 09:47:40;;;;;;;2.78;1.20;;;;;22.00;101004.00;;;;10433229;28;20194;-78
2022/06/06 09:53:16;;;;;;;3.58;1.10;;;;;24.30;101003.00;;;;10430790;28;20194;-78
2022/06/06 09:59:02;;;;;;;4.25;0.98;;;;;25.50;100990.00;;;;10443067;28;20260;-79
2022/06/06 10:04:23;;;;;;;1.33;0.85;;;;;25.50;100984.00;;;;10443749;28;20232;-79
2022/06/06 10:10:00;;;;;;;2.30;1.05;;;;;24.20;101009.00;;;;10466865;28;20651;-78
2022/06/06 10:15:34;;;;;;;2.67;1.17;;;;;24.20;100990.00;;;;10451077;28;20202;-78
2022/06/06 10:20:55;;;;;;;2.35;0.90;;;;;23.60;100988.00;;;;10470197;28;20216;-78
2022/06/06 10:26:19;;;;;;;1.60;0.70;;;;;23.20;100989.00;;;;10486626;28;20201;-79
2022/06/06 10:31:52;;;;;;;5.43;1.10;;;;;25.40;100970.00;;;;10468131;28;20221;-79
2022/06/06 10:37:23;;;;;;;1.77;1.05;;;;;25.20;100985.00;;;;10485374;28;20225;-79
2022/06/06 10:42:50;;;;;;;3.30;0.90;;;;;23.10;100983.00;;;;10454265;28;20628;-78
2022/06/06 10:48:07;;;;;;;1.65;0.73;;;;;22.50;100973.00;;;;10443337;28;20196;-79
2022/06/06 10:53:30;;;;;;;1.70;0.75;;;;;25.00;100976.00;;;;10469069;28;20258;-78
2022/06/06 10:58:37;;;;;;;2.25;0.65;;;;;23.10;100980.00;;;;10448550;28;20205;-79
2022/06/06 11:03:45;;;;;;;2.20;1.00;;;;;21.50;100996.00;;;;10443478;28;20218;-78
2022/06/06 11:08:59;;;;;;;2.47;0.90;;;;;21.50;100998.00;;;;10459894;28;20193;-78
2022/06/06 11:14:12;;;;;;;4.72;0.80;;;;;21.50;100990.00;;;;10435032;28;20243;-78
2022/06/06 11:19:52;;;;;;;3.55;0.80;;;;;22.50;100981.00;;;;10467544;28;20252;-78
2022/06/06 11:25:07;;;;;;;1.60;0.80;;;;;22.80;100987.00;;;;10409216;28;20225;-78
2022/06/06 11:30:35;;;;;;;2.28;0.80;;;;;22.90;100966.00;;;;10426895;28;20216;-78
2022/06/06 11:35:54;;;;;;;1.45;0.85;;;;;23.10;100967.00;;;;10411474;28;20205;-78
2022/06/06 11:41:31;;;;;;;4.03;0.70;;;;;23.40;100957.00;;;;10427510;28;20214;-78
2022/06/06 11:47:10;;;;;;;3.28;0.80;;;;;22.70;100968.00;;;;10346138;28;20256;-78
2022/06/06 11:52:36;;;;;;;2.70;0.82;;;;;21.40;100982.00;;;;10464819;28;20194;-77
2022/06/06 11:58:20;;;;;;;3.28;0.82;;;;;20.90;100973.00;;;;10466833;28;20207;-78
2022/06/06 12:03:54;;;;;;;2.00;1.10;;;;;21.20;100973.00;;;;10424253;28;20197;-77
2022/06/06 12:09:17;;;;;;;1.92;0.80;;;;;22.00;100977.00;;;;10413848;28;20259;-77
2022/06/06 12:14:56;;;;;;;2.40;0.77;;;;;23.10;100974.00;;;;10426384;28;20186;-78
2022/06/06 12:20:30;;;;;;;1.80;1.00;;;;;23.40;100971.00;;;;10440941;28;20588;-78
2022/06/06 12:25:46;;;;;;;3.08;0.90;;;;;23.70;100975.00;;;;10425611;28;20208;-77
2022/06/06 12:31:16;;;;;;;3.42;0.88;;;;;23.90;100974.00;;;;10465638;28;20648;-77
2022/06/06 12:36:32;;;;;;;5.30;2.00;;;;;23.90;100976.00;;;;10445813;28;20190;-78
2022/06/06 12:42:02;;;;;;;2.40;1.00;;;;;23.30;100980.00;;;;10424484;28;20181;-78
2022/06/06 12:47:12;;;;;;;2.50;1.77;;;;;22.10;100986.00;;;;10441107;28;20221;-78
2022/06/06 12:52:26;;;;;;;2.50;0.90;;;;;22.30;100969.00;;;;10451843;28;20193;-78
2022/06/06 12:57:41;;;;;;;4.25;1.02;;;;;23.10;100980.00;;;;10444687;28;20300;-77
2022/06/06 13:03:34;;;;;;;1.60;0.80;;;;;24.30;100973.00;;;;10482341;28;20193;-78
2022/06/06 13:09:18;;;;;;;4.05;1.45;;;;;25.40;100961.00;;;;10257190;28;20612;-78
2022/06/06 13:14:26;;;;;;;2.10;1.10;;;;;26.00;100964.00;;;;10400585;28;20204;-78
2022/06/06 13:20:05;;;;;;;1.75;0.80;;;;;25.50;100967.00;;;;10437414;28;20300;-78
2022/06/06 13:25:15;;;;;;;2.13;0.85;;;;;24.40;100967.00;;;;10448833;28;20257;-78
2022/06/06 13:30:25;;;;;;;4.20;0.93;;;;;23.30;100967.00;;;;10415572;28;20645;-77
2022/06/06 13:35:54;;;;;;;2.85;1.02;;;;;23.70;100959.00;;;;10448614;28;20200;-77
2022/06/06 13:41:21;;;;;;;1.92;1.05;;;;;24.30;100965.00;;;;10432069;28;20207;-77
2022/06/06 13:46:32;;;;;;;2.30;1.00;;;;;24.80;100967.00;;;;10433160;28;20206;-78
2022/06/06 13:52:13;;;;;;;2.40;1.08;;;;;24.70;100961.00;;;;10463733;28;20239;-78
2022/06/06 13:57:31;;;;;;;3.70;0.88;;;;;24.90;100967.00;;;;10296715;28;20212;-78
2022/06/06 14:02:48;;;;;;;5.43;0.70;;;;;24.70;100965.00;;;;10420250;28;20193;-77
2022/06/06 14:08:07;;;;;;;2.70;0.88;;;;;24.40;100968.00;;;;10452255;28;20217;-77
2022/06/06 14:13:50;;;;;;;4.30;1.10;;;;;24.00;100963.00;;;;10471167;28;20540;-79
2022/06/06 14:18:58;;;;;;;3.67;1.17;;;;;23.80;100965.00;;;;10484711;28;20270;-78
2022/06/06 14:24:13;;;;;;;1.80;0.95;;;;;23.80;100969.00;;;;10438378;28;20644;-78
2022/06/06 14:29:36;;;;;;;4.07;1.02;;;;;23.70;100965.00;;;;10461898;28;20288;-78
2022/06/06 14:34:45;;;;;;;2.33;1.20;;;;;23.70;100962.00;;;;10424168;28;20206;-77
2022/06/06 14:39:50;;;;;;;3.80;0.82;;;;;23.90;100961.00;;;;10428355;28;20199;-78
2022/06/06 14:45:08;;;;;;;3.78;0.93;;;;;23.70;100963.00;;;;10427761;28;20196;-78
2022/06/06 14:55:44;;;;;;;3.25;1.08;;;;;23.30;100972.00;;;;10439619;28;20548;-77
2022/06/06 15:00:54;;;;;;;2.75;1.00;;;;;23.10;100965.00;;;;10468745;28;20205;-77
2022/06/06 15:06:09;;;;;;;3.72;1.40;;;;;23.00;100973.00;;;;10452286;28;20282;-77
2022/06/06 15:11:25;;;;;;;2.72;1.20;;;;;22.90;100969.00;;;;10429238;28;20194;-77
2022/06/06 15:16:32;;;;;;;1.15;1.00;;;;;22.90;100973.00;;;;10499457;28;20224;-78
2022/06/06 15:21:38;;;;;;;2.78;1.17;;;;;23.00;100977.00;;;;10501787;28;20259;-79
2022/06/06 15:26:44;;;;;;;0.88;0.77;;;;;22.90;100962.00;;;;10460435;28;20214;-78
2022/06/06 15:32:06;;;;;;;2.03;0.80;;;;;22.40;100969.00;;;;10411304;28;20209;-78
2022/06/06 15:37:18;;;;;;;1.45;0.70;;;;;22.40;100964.00;;;;10429823;28;20190;-78
2022/06/06 15:42:40;;;;;;;1.02;0.70;;;;;22.50;100968.00;;;;10456144;28;20321;-78
2022/06/06 15:48:09;;;;;;;3.13;0.93;;;;;22.90;100952.00;;;;10441100;28;20198;-78
2022/06/06 15:53:30;;;;;;;4.88;1.02;;;;;22.80;100969.00;;;;10426984;28;20681;-78
2022/06/06 15:58:50;;;;;;;2.80;1.00;;;;;22.60;100960.00;;;;10436615;28;20292;-78
2022/06/06 16:04:22;;;;;;;4.95;0.95;;;;;22.50;100955.00;;;;10460589;28;20206;-78
2022/06/06 16:09:39;;;;;;;2.95;0.88;;;;;22.50;100957.00;;;;10466438;28;20616;-77
2022/06/06 16:15:09;;;;;;;3.63;0.80;;;;;22.40;100963.00;;;;10483529;28;20346;-77
2022/06/06 16:20:20;;;;;;;2.35;1.10;;;;;22.10;100954.00;;;;10433653;28;20217;-78
2022/06/06 16:25:43;;;;;;;3.67;1.20;;;;;21.90;100952.00;;;;10484529;28;20209;-78
2022/06/06 16:30:49;;;;;;;2.17;1.20;;;;;21.50;100952.00;;;;10464187;28;20193;-77
2022/06/06 16:36:01;;;;;;;4.55;1.27;;;;;20.80;100942.00;;;;10460708;28;20652;-77
2022/06/06 16:41:12;;;;;;;1.38;1.05;;;;;20.60;100949.00;;;;10436360;28;20272;-77
2022/06/06 16:52:11;;;;;;;1.98;1.25;;;;;20.60;100959.00;;;;10451438;28;20672;-76
2022/06/06 16:57:46;;;;;;;7.13;1.50;;;;;20.70;100955.00;;;;10484286;28;20200;-77
2022/06/06 17:03:00;;;;;;;4.63;1.40;;;;;20.70;100966.00;;;;10451017;28;20221;-76
2022/06/06 17:08:25;;;;;;;6.75;1.80;;;;;20.30;100964.00;;;;10421252;28;20214;-76
2022/06/06 17:13:49;;;;;;;2.45;1.20;;;;;20.00;100958.00;;;;10453683;28;20201;-77
2022/06/06 17:19:03;;;;;;;3.78;1.50;;;;;19.90;100962.00;;;;10470526;28;20270;-77
2022/06/06 17:24:46;;;;;;;102.07;7.20;;;;;20.00;100968.00;;;;10428992;28;20648;-76
2022/06/06 17:30:30;;;;;;;3.53;1.30;;;;;20.00;100960.00;;;;10445005;28;20727;-77
2022/06/06 17:35:42;;;;;;;3.55;1.45;;;;;19.70;100965.00;;;;10392031;28;20269;-77
2022/06/06 17:40:44;;;;;;;4.40;2.13;;;;;19.50;100967.00;;;;10445255;28;20210;-77
2022/06/06 17:46:08;;;;;;;4.80;1.52;;;;;19.20;100973.00;;;;10428262;28;20197;-77
2022/06/06 17:51:31;;;;;;;1.33;1.20;;;;;19.10;100975.00;;;;10436935;28;20198;-77
2022/06/06 17:56:52;;;;;;;1.92;1.48;;;;;19.00;100977.00;;;;10443244;28;20210;-77
2022/06/06 18:02:15;;;;;;;1.90;1.08;;;;;19.10;100972.00;;;;10441865;28;20205;-77
2022/06/06 18:08:05;;;;;;;6.57;1.25;;;;;19.30;100978.00;;;;10441550;28;20221;-76
2022/06/06 18:13:32;;;;;;;2.58;1.15;;;;;19.10;100977.00;;;;10235789;29;20202;-76
2022/06/06 18:18:47;;;;;;;3.15;1.30;;;;;18.90;100973.00;;;;10429064;28;20205;-77
2022/06/06 18:23:52;;;;;;;2.25;1.20;;;;;18.80;100970.00;;;;10452057;28;20192;-76
2022/06/06 18:29:15;;;;;;;3.05;1.23;;;;;18.70;100970.00;;;;10456957;28;20206;-76
2022/06/06 18:34:20;;;;;;;2.40;1.50;;;;;18.60;100970.00;;;;10480086;28;20185;-77
2022/06/06 18:39:29;;;;;;;3.83;1.30;;;;;18.20;100970.00;;;;10452592;28;20256;-76
2022/06/06 18:44:39;;;;;;;4.40;1.40;;;;;18.10;100966.00;;;;10468857;28;20186;-76
2022/06/06 18:50:05;;;;;;;5.10;1.60;;;;;18.00;100976.00;;;;10481446;28;20954;-76
2022/06/06 18:55:16;;;;;;;3.83;1.25;;;;;17.80;100979.00;;;;10491899;28;20189;-77
2022/06/06 19:00:39;;;;;;;3.83;1.13;;;;;17.50;100972.00;;;;10444870;28;20208;-76
2022/06/06 19:05:41;;;;;;;4.40;1.52;;;;;17.30;100967.00;;;;10412136;28;20627;-77
2022/06/06 19:10:49;;;;;;;4.97;1.40;;;;;17.20;100971.00;;;;10426056;28;20187;-77
2022/06/06 19:16:03;;;;;;;4.90;1.58;;;;;17.10;100973.00;;;;10436873;28;20674;-77
2022/06/06 19:21:30;;;;;;;4.40;1.45;;;;;16.90;100968.00;;;;10481829;28;20209;-76
2022/06/06 19:26:35;;;;;;;4.47;1.87;;;;;16.60;100982.00;;;;10466234;28;20601;-77
2022/06/06 19:31:41;;;;;;;6.70;2.22;;;;;16.40;100982.00;;;;10450771;28;20209;-78
2022/06/06 19:36:51;;;;;;;4.47;1.80;;;;;16.20;100979.00;;;;10435424;28;20190;-77
2022/06/06 19:41:53;;;;;;;5.47;1.50;;;;;16.00;100978.00;;;;10425655;28;20210;-77
2022/06/06 19:47:02;;;;;;;2.70;1.60;;;;;15.70;100989.00;;;;10424428;28;20186;-77
2022/06/06 19:52:14;;;;;;;2.30;1.60;;;;;15.50;100994.00;;;;10449561;28;20185;-77
2022/06/06 19:57:20;;;;;;;3.77;1.67;;;;;15.30;100998.00;;;;10460806;28;20201;-78
2022/06/06 20:02:36;;;;;;;3.63;2.30;;;;;15.20;101003.00;;;;10446383;28;20206;-78
2022/06/06 20:07:40;;;;;;;3.53;1.93;;;;;15.00;101002.00;;;;10481487;28;20221;-77
2022/06/06 20:12:48;;;;;;;3.83;2.17;;;;;14.90;101000.00;;;;10449013;28;20182;-77
2022/06/06 20:17:52;;;;;;;4.47;2.30;;;;;14.70;101010.00;;;;10430633;28;20192;-78
2022/06/06 20:22:58;;;;;;;2.27;2.07;;;;;14.50;101004.00;;;;10480713;28;20204;-77
2022/06/06 20:28:06;;;;;;;8.73;2.43;;;;;14.30;101009.00;;;;10480008;28;20198;-80
2022/06/06 20:33:09;;;;;;;4.10;2.20;;;;;14.00;101008.00;;;;10436371;28;20182;-79
2022/06/06 20:38:16;;;;;;;5.80;2.70;;;;;13.80;101001.00;;;;10422760;28;20218;-80
2022/06/06 20:43:24;;;;;;;5.63;2.97;;;;;13.60;100996.00;;;;10406930;28;20197;-79
2022/06/06 20:48:38;;;;;;;9.73;3.43;;;;;13.50;101003.00;;;;10433132;28;20261;-80
2022/06/06 20:53:46;;;;;;;7.57;2.80;;;;;13.40;100994.00;;;;10444928;28;20186;-80
2022/06/06 20:58:48;;;;;;;7.07;2.90;;;;;13.40;100997.00;;;;10438816;28;20228;-80
2022/06/06 21:03:50;;;;;;;7.13;3.17;;;;;13.30;100997.00;;;;10425002;28;20209;-79
2022/06/06 21:09:05;;;;;;;5.60;2.70;;;;;13.20;100997.00;;;;10447252;28;20268;-80
2022/06/06 21:14:09;;;;;;;6.13;3.00;;;;;13.10;101001.00;;;;10479102;28;20692;-80
2022/06/06 21:19:11;;;;;;;4.73;3.13;;;;;13.00;101000.00;;;;10441564;28;20221;-80
2022/06/06 21:24:16;;;;;;;8.47;4.47;;;;;12.90;100989.00;;;;10427969;28;20273;-79
2022/06/06 21:29:18;;;;;;;8.53;4.13;;;;;12.90;100990.00;;;;10457306;28;20198;-80
2022/06/06 21:34:20;;;;;;;5.03;3.43;;;;;12.80;100988.00;;;;10435725;28;20213;-80
2022/06/06 21:39:22;;;;;;;4.77;3.37;;;;;12.80;100980.00;;;;10422049;28;20207;-79
2022/06/06 21:44:25;;;;;;;10.33;4.87;;;;;12.70;100984.00;;;;10429057;28;20657;-79
2022/06/06 21:49:27;;;;;;;6.23;3.63;;;;;12.70;100988.00;;;;10442412;28;20285;-79
2022/06/06 21:54:29;;;;;;;8.93;4.10;;;;;12.60;100984.00;;;;10446864;28;20202;-79
2022/06/06 21:59:32;;;;;;;6.47;4.30;;;;;12.50;100986.00;;;;10407559;28;20665;-80
2022/06/06 22:04:36;;;;;;;7.67;4.40;;;;;12.50;100977.00;;;;10446611;28;20227;-79
2022/06/06 22:09:39;;;;;;;10.80;8.27;;;;;12.40;100981.00;;;;10468503;28;20648;-80
2022/06/06 22:14:44;;;;;;;8.53;4.27;;;;;12.40;100985.00;;;;10469863;28;20182;-79
2022/06/06 22:19:46;;;;;;;9.03;5.20;;;;;12.30;100973.00;;;;10420688;28;20616;-80
2022/06/06 22:24:59;;;;;;;8.90;4.30;;;;;12.30;100982.00;;;;10433498;28;20734;-79
2022/06/06 22:30:04;;;;;;;10.43;5.07;;;;;12.20;100969.00;;;;10445357;28;20268;-81
2022/06/06 22:35:06;;;;;;;7.83;4.07;;;;;12.10;100967.00;;;;10439241;28;20202;-80
2022/06/06 22:40:09;;;;;;;5.37;3.80;;;;;12.00;100958.00;;;;10426504;28;20214;-80
2022/06/06 22:45:11;;;;;;;6.60;3.20;;;;;12.00;100954.00;;;;10426567;28;20736;-80
2022/06/06 22:50:13;;;;;;;5.43;2.97;;;;;11.90;100940.00;;;;10469280;28;20648;-80
2022/06/06 22:55:15;;;;;;;7.90;2.90;;;;;12.00;100941.00;;;;10444942;28;20194;-81
2022/06/06 23:00:17;;;;;;;5.07;3.13;;;;;12.00;100945.00;;;;10450888;28;20236;-81
2022/06/06 23:05:21;;;;;;;6.07;3.10;;;;;11.90;100946.00;;;;10434946;28;20300;-80
2022/06/06 23:10:23;;;;;;;4.93;3.30;;;;;11.90;100938.00;;;;10466482;28;20194;-80
2022/06/06 23:15:25;;;;;;;6.27;3.10;;;;;11.80;100941.00;;;;10450084;28;20243;-80
2022/06/06 23:20:27;;;;;;;8.13;3.40;;;;;11.80;100942.00;;;;10425082;28;20257;-80
2022/06/06 23:25:29;;;;;;;6.43;3.50;;;;;11.80;100939.00;;;;10413841;28;20224;-80
2022/06/06 23:30:31;;;;;;;6.10;2.97;;;;;11.70;100942.00;;;;10445602;28;20194;-81
2022/06/06 23:35:34;;;;;;;3.80;2.70;;;;;11.70;100939.00;;;;10408865;28;20209;-81
2022/06/06 23:40:36;;;;;;;6.00;3.10;;;;;11.70;100929.00;;;;10416929;28;20221;-81
2022/06/06 23:51:05;;;;;;;5.60;2.93;;;;;11.40;100929.00;;;;10441550;28;20621;-80
2022/06/06 23:56:11;;;;;;;4.57;2.90;;;;;11.30;100917.00;;;;10413834;28;20190;-81
